sensor_id;sensor_type;location;lat;lon;timestamp;pressure;altitude;pressure_sealevel;temperature;humidity
32873;BME280;19224;52.462;16.898;2024-03-06T00:00:31;100740.11;;;5.67;100.00
32873;BME280;19224;52.462;16.898;2024-03-06T00:03:03;100743.66;;;5.66;100.00
32873;BME280;19224;52.462;16.898;2024-03-06T00:05:34;100740.62;;;5.63;100.00
32873;BME280;19224;52.462;16.898;2024-03-06T00:08:07;100745.61;;;5.58;100.00
32873;BME280;19224;52.462;16.898;2024-03-06T00:10:37;100745.19;;;5.57;100.00
32873;BME280;19224;52.462;16.898;2024-03-06T00:13:08;100746.98;;;5.55;100.00
32873;BME280;19224;52.462;16.898;2024-03-06T00:15:38;100754.27;;;5.47;100.00
32873;BME280;19224;52.462;16.898;2024-03-06T00:18:09;100751.61;;;5.45;100.00
32873;BME280;19224;52.462;16.898;2024-03-06T00:20:39;100757.45;;;5.42;100.00
32873;BME280;19224;52.462;16.898;2024-03-06T00:23:11;100762.41;;;5.39;100.00
32873;BME280;19224;52.462;16.898;2024-03-06T00:25:41;100766.08;;;5.32;100.00
32873;BME280;19224;52.462;16.898;2024-03-06T00:28:11;100767.20;;;5.18;100.00
32873;BME280;19224;52.462;16.898;2024-03-06T00:30:42;100765.92;;;5.15;100.00
32873;BME280;19224;52.462;16.898;2024-03-06T00:33:12;100779.75;;;5.13;100.00
32873;BME280;19224;52.462;16.898;2024-03-06T00:35:42;100781.88;;;5.19;100.00
32873;BME280;19224;52.462;16.898;2024-03-06T00:38:13;100782.30;;;5.19;100.00
32873;BME280;19224;52.462;16.898;2024-03-06T00:40:43;100784.05;;;5.23;100.00
32873;BME280;19224;52.462;16.898;2024-03-06T00:43:13;100778.22;;;5.25;100.00
32873;BME280;19224;52.462;16.898;2024-03-06T00:45:50;100787.88;;;5.32;100.00
32873;BME280;19224;52.462;16.898;2024-03-06T00:48:20;100785.63;;;5.33;100.00
32873;BME280;19224;52.462;16.898;2024-03-06T00:50:51;100785.55;;;5.39;100.00
32873;BME280;19224;52.462;16.898;2024-03-06T00:53:21;100791.26;;;5.43;100.00
32873;BME280;19224;52.462;16.898;2024-03-06T00:55:52;100796.52;;;5.49;100.00
32873;BME280;19224;52.462;16.898;2024-03-06T00:58:22;100790.27;;;5.50;100.00
32873;BME280;19224;52.462;16.898;2024-03-06T01:00:53;100793.73;;;5.55;100.00
32873;BME280;19224;52.462;16.898;2024-03-06T01:03:28;100795.47;;;5.57;100.00
32873;BME280;19224;52.462;16.898;2024-03-06T01:05:59;100799.47;;;5.59;100.00
32873;BME280;19224;52.462;16.898;2024-03-06T01:08:31;100798.92;;;5.64;100.00
32873;BME280;19224;52.462;16.898;2024-03-06T01:11:05;100802.84;;;5.70;100.00
32873;BME280;19224;52.462;16.898;2024-03-06T01:13:35;100805.92;;;5.72;100.00
32873;BME280;19224;52.462;16.898;2024-03-06T01:16:07;100804.48;;;5.77;100.00
32873;BME280;19224;52.462;16.898;2024-03-06T01:18:37;100805.52;;;5.70;100.00
32873;BME280;19224;52.462;16.898;2024-03-06T01:21:07;100805.45;;;5.73;100.00
32873;BME280;19224;52.462;16.898;2024-03-06T01:23:37;100805.81;;;5.77;100.00
32873;BME280;19224;52.462;16.898;2024-03-06T01:26:08;100807.45;;;5.87;100.00
32873;BME280;19224;52.462;16.898;2024-03-06T01:28:38;100805.74;;;5.84;100.00
32873;BME280;19224;52.462;16.898;2024-03-06T01:31:09;100808.27;;;5.92;100.00
32873;BME280;19224;52.462;16.898;2024-03-06T01:33:39;100809.45;;;6.01;100.00
32873;BME280;19224;52.462;16.898;2024-03-06T01:36:11;100816.08;;;6.02;100.00
32873;BME280;19224;52.462;16.898;2024-03-06T01:38:41;100820.91;;;6.07;100.00
32873;BME280;19224;52.462;16.898;2024-03-06T01:41:13;100815.91;;;6.13;100.00
32873;BME280;19224;52.462;16.898;2024-03-06T01:43:44;100819.51;;;6.10;100.00
32873;BME280;19224;52.462;16.898;2024-03-06T01:46:14;100824.19;;;6.23;100.00
32873;BME280;19224;52.462;16.898;2024-03-06T01:48:46;100823.73;;;6.22;100.00
32873;BME280;19224;52.462;16.898;2024-03-06T01:51:17;100824.27;;;6.18;100.00
32873;BME280;19224;52.462;16.898;2024-03-06T01:53:48;100825.13;;;6.19;100.00
32873;BME280;19224;52.462;16.898;2024-03-06T01:56:20;100825.13;;;6.19;100.00
32873;BME280;19224;52.462;16.898;2024-03-06T01:58:51;100826.38;;;6.25;100.00
32873;BME280;19224;52.462;16.898;2024-03-06T02:01:22;100828.05;;;6.30;100.00
32873;BME280;19224;52.462;16.898;2024-03-06T02:03:53;100821.36;;;6.30;100.00
32873;BME280;19224;52.462;16.898;2024-03-06T02:06:24;100823.54;;;6.32;100.00
32873;BME280;19224;52.462;16.898;2024-03-06T02:08:55;100825.86;;;6.28;100.00
32873;BME280;19224;52.462;16.898;2024-03-06T02:11:27;100824.55;;;6.25;100.00
32873;BME280;19224;52.462;16.898;2024-03-06T02:13:58;100829.82;;;6.30;100.00
32873;BME280;19224;52.462;16.898;2024-03-06T02:16:29;100830.33;;;6.26;100.00
32873;BME280;19224;52.462;16.898;2024-03-06T02:19:01;100827.42;;;6.38;100.00
32873;BME280;19224;52.462;16.898;2024-03-06T02:21:33;100835.07;;;6.36;100.00
32873;BME280;19224;52.462;16.898;2024-03-06T02:24:04;100834.23;;;6.32;100.00
32873;BME280;19224;52.462;16.898;2024-03-06T02:26:35;100836.02;;;6.32;100.00
32873;BME280;19224;52.462;16.898;2024-03-06T02:29:05;100836.02;;;6.32;100.00
32873;BME280;19224;52.462;16.898;2024-03-06T02:31:36;100829.95;;;6.24;100.00
32873;BME280;19224;52.462;16.898;2024-03-06T02:34:08;100834.91;;;6.20;100.00
32873;BME280;19224;52.462;16.898;2024-03-06T02:36:39;100836.41;;;6.11;100.00
32873;BME280;19224;52.462;16.898;2024-03-06T02:39:09;100834.86;;;5.99;100.00
32873;BME280;19224;52.462;16.898;2024-03-06T02:41:39;100836.34;;;5.92;100.00
32873;BME280;19224;52.462;16.898;2024-03-06T02:44:10;100837.41;;;5.82;100.00
32873;BME280;19224;52.462;16.898;2024-03-06T02:46:40;100830.78;;;5.79;100.00
32873;BME280;19224;52.462;16.898;2024-03-06T02:49:10;100832.11;;;5.76;100.00
32873;BME280;19224;52.462;16.898;2024-03-06T02:51:41;100838.91;;;5.70;100.00
32873;BME280;19224;52.462;16.898;2024-03-06T02:54:11;100835.41;;;5.66;100.00
32873;BME280;19224;52.462;16.898;2024-03-06T02:56:41;100834.21;;;5.57;100.00
32873;BME280;19224;52.462;16.898;2024-03-06T02:59:12;100835.61;;;5.54;100.00
32873;BME280;19224;52.462;16.898;2024-03-06T03:01:43;100841.07;;;5.47;100.00
32873;BME280;19224;52.462;16.898;2024-03-06T03:04:14;100843.40;;;5.40;100.00
32873;BME280;19224;52.462;16.898;2024-03-06T03:06:44;100840.00;;;5.30;100.00
32873;BME280;19224;52.462;16.898;2024-03-06T03:09:15;100843.58;;;5.28;100.00
32873;BME280;19224;52.462;16.898;2024-03-06T03:11:45;100840.91;;;5.28;100.00
32873;BME280;19224;52.462;16.898;2024-03-06T03:14:15;100847.64;;;5.25;100.00
32873;BME280;19224;52.462;16.898;2024-03-06T03:16:45;100844.98;;;5.23;100.00
32873;BME280;19224;52.462;16.898;2024-03-06T03:19:16;100850.55;;;5.08;100.00
32873;BME280;19224;52.462;16.898;2024-03-06T03:21:47;100840.80;;;5.06;100.00
32873;BME280;19224;52.462;16.898;2024-03-06T03:24:18;100843.52;;;5.01;100.00
32873;BME280;19224;52.462;16.898;2024-03-06T03:26:49;100848.91;;;5.00;100.00
32873;BME280;19224;52.462;16.898;2024-03-06T03:29:20;100848.18;;;4.86;100.00
32873;BME280;19224;52.462;16.898;2024-03-06T03:31:52;100855.34;;;4.82;100.00
32873;BME280;19224;52.462;16.898;2024-03-06T03:34:24;100845.56;;;4.81;100.00
32873;BME280;19224;52.462;16.898;2024-03-06T03:36:56;100853.61;;;4.80;100.00
32873;BME280;19224;52.462;16.898;2024-03-06T03:39:26;100850.14;;;4.73;100.00
32873;BME280;19224;52.462;16.898;2024-03-06T03:41:57;100858.73;;;4.61;100.00
32873;BME280;19224;52.462;16.898;2024-03-06T03:44:27;100857.54;;;4.51;100.00
32873;BME280;19224;52.462;16.898;2024-03-06T03:46:57;100853.97;;;4.50;100.00
32873;BME280;19224;52.462;16.898;2024-03-06T03:49:27;100861.13;;;4.47;100.00
32873;BME280;19224;52.462;16.898;2024-03-06T03:51:58;100867.35;;;4.47;100.00
32873;BME280;19224;52.462;16.898;2024-03-06T03:54:28;100863.31;;;4.49;100.00
32873;BME280;19224;52.462;16.898;2024-03-06T03:56:59;100862.03;;;4.44;100.00
32873;BME280;19224;52.462;16.898;2024-03-06T03:59:29;100865.64;;;4.40;100.00
32873;BME280;19224;52.462;16.898;2024-03-06T04:01:59;100863.06;;;4.34;100.00
32873;BME280;19224;52.462;16.898;2024-03-06T04:04:30;100866.67;;;4.29;100.00
32873;BME280;19224;52.462;16.898;2024-03-06T04:07:00;100862.38;;;4.14;100.00
32873;BME280;19224;52.462;16.898;2024-03-06T04:09:32;100858.38;;;4.13;100.00
32873;BME280;19224;52.462;16.898;2024-03-06T04:12:06;100862.84;;;4.12;100.00
32873;BME280;19224;52.462;16.898;2024-03-06T04:14:36;100863.75;;;4.08;100.00
32873;BME280;19224;52.462;16.898;2024-03-06T04:17:06;100862.97;;;4.00;100.00
32873;BME280;19224;52.462;16.898;2024-03-06T04:19:37;100871.47;;;3.91;100.00
32873;BME280;19224;52.462;16.898;2024-03-06T04:22:10;100872.41;;;3.87;100.00
32873;BME280;19224;52.462;16.898;2024-03-06T04:24:49;100870.17;;;3.89;100.00
32873;BME280;19224;52.462;16.898;2024-03-06T04:27:15;100870.17;;;3.89;100.00
32873;BME280;19224;52.462;16.898;2024-03-06T04:29:47;100872.80;;;3.92;100.00
32873;BME280;19224;52.462;16.898;2024-03-06T04:32:18;100876.91;;;3.79;100.00
32873;BME280;19224;52.462;16.898;2024-03-06T04:34:49;100882.70;;;3.78;100.00
32873;BME280;19224;52.462;16.898;2024-03-06T04:37:19;100885.83;;;3.75;100.00
32873;BME280;19224;52.462;16.898;2024-03-06T04:39:49;100891.59;;;3.76;100.00
32873;BME280;19224;52.462;16.898;2024-03-06T04:42:19;100889.43;;;3.66;100.00
32873;BME280;19224;52.462;16.898;2024-03-06T04:44:50;100893.42;;;3.69;100.00
32873;BME280;19224;52.462;16.898;2024-03-06T04:47:23;100890.77;;;3.68;100.00
32873;BME280;19224;52.462;16.898;2024-03-06T04:49:55;100893.89;;;3.67;100.00
32873;BME280;19224;52.462;16.898;2024-03-06T04:52:32;100891.20;;;3.70;100.00
32873;BME280;19224;52.462;16.898;2024-03-06T04:54:58;100898.25;;;3.74;100.00
32873;BME280;19224;52.462;16.898;2024-03-06T04:57:31;100892.99;;;3.68;100.00
32873;BME280;19224;52.462;16.898;2024-03-06T05:00:03;100894.85;;;3.57;100.00
32873;BME280;19224;52.462;16.898;2024-03-06T05:02:37;100893.58;;;3.48;100.00
32873;BME280;19224;52.462;16.898;2024-03-06T05:05:08;100903.33;;;3.49;100.00
32873;BME280;19224;52.462;16.898;2024-03-06T05:07:38;100909.55;;;3.47;100.00
32873;BME280;19224;52.462;16.898;2024-03-06T05:10:13;100911.77;;;3.44;100.00
32873;BME280;19224;52.462;16.898;2024-03-06T05:12:44;100908.68;;;3.43;100.00
32873;BME280;19224;52.462;16.898;2024-03-06T05:15:15;100909.19;;;3.32;100.00
32873;BME280;19224;52.462;16.898;2024-03-06T05:17:45;100914.06;;;3.37;100.00
32873;BME280;19224;52.462;16.898;2024-03-06T05:20:17;100910.94;;;3.38;100.00
32873;BME280;19224;52.462;16.898;2024-03-06T05:22:49;100919.33;;;3.43;100.00
32873;BME280;19224;52.462;16.898;2024-03-06T05:25:19;100913.11;;;3.44;100.00
32873;BME280;19224;52.462;16.898;2024-03-06T05:27:50;100911.81;;;3.43;100.00
32873;BME280;19224;52.462;16.898;2024-03-06T05:30:20;100912.23;;;3.42;100.00
32873;BME280;19224;52.462;16.898;2024-03-06T05:32:51;100914.90;;;3.42;100.00
32873;BME280;19224;52.462;16.898;2024-03-06T05:35:23;100920.64;;;3.49;100.00
32873;BME280;19224;52.462;16.898;2024-03-06T05:37:55;100922.81;;;3.57;100.00
32873;BME280;19224;52.462;16.898;2024-03-06T05:40:26;100920.05;;;3.66;100.00
32873;BME280;19224;52.462;16.898;2024-03-06T05:43:02;100922.19;;;3.77;100.00
32873;BME280;19224;52.462;16.898;2024-03-06T05:45:33;100921.30;;;3.81;100.00
32873;BME280;19224;52.462;16.898;2024-03-06T05:48:06;100920.39;;;3.82;100.00
32873;BME280;19224;52.462;16.898;2024-03-06T05:50:42;100925.66;;;3.88;100.00
32873;BME280;19224;52.462;16.898;2024-03-06T05:53:13;100921.63;;;3.94;100.00
32873;BME280;19224;52.462;16.898;2024-03-06T05:55:44;100920.63;;;4.07;100.00
32873;BME280;19224;52.462;16.898;2024-03-06T05:58:14;100920.15;;;4.12;100.00
32873;BME280;19224;52.462;16.898;2024-03-06T06:00:45;100920.42;;;4.27;100.00
32873;BME280;19224;52.462;16.898;2024-03-06T06:03:16;100925.20;;;4.38;100.00
32873;BME280;19224;52.462;16.898;2024-03-06T06:05:48;100930.02;;;4.47;100.00
32873;BME280;19224;52.462;16.898;2024-03-06T06:08:18;100931.66;;;4.58;100.00
32873;BME280;19224;52.462;16.898;2024-03-06T06:10:48;100929.27;;;4.74;100.00
32873;BME280;19224;52.462;16.898;2024-03-06T06:13:20;100931.80;;;4.86;100.00
32873;BME280;19224;52.462;16.898;2024-03-06T06:15:52;100926.90;;;4.86;100.00
32873;BME280;19224;52.462;16.898;2024-03-06T06:18:22;100925.83;;;5.02;100.00
32873;BME280;19224;52.462;16.898;2024-03-06T06:20:53;100933.27;;;5.10;100.00
32873;BME280;19224;52.462;16.898;2024-03-06T06:23:23;100928.81;;;5.12;100.00
32873;BME280;19224;52.462;16.898;2024-03-06T06:25:54;100930.54;;;5.14;100.00
32873;BME280;19224;52.462;16.898;2024-03-06T06:28:25;100935.92;;;5.13;100.00
32873;BME280;19224;52.462;16.898;2024-03-06T06:30:55;100941.21;;;5.16;100.00
32873;BME280;19224;52.462;16.898;2024-03-06T06:33:25;100934.59;;;5.13;100.00
32873;BME280;19224;52.462;16.898;2024-03-06T06:35:55;100935.39;;;5.18;100.00
32873;BME280;19224;52.462;16.898;2024-03-06T06:38:26;100943.89;;;5.14;100.00
32873;BME280;19224;52.462;16.898;2024-03-06T06:40:57;100946.97;;;5.18;100.00
32873;BME280;19224;52.462;16.898;2024-03-06T06:43:27;100958.93;;;5.23;100.00
32873;BME280;19224;52.462;16.898;2024-03-06T06:45:59;100954.30;;;5.35;100.00
32873;BME280;19224;52.462;16.898;2024-03-06T06:48:31;100944.47;;;5.37;100.00
32873;BME280;19224;52.462;16.898;2024-03-06T06:51:02;100949.20;;;5.50;100.00
32873;BME280;19224;52.462;16.898;2024-03-06T06:53:32;100956.44;;;5.71;100.00
32873;BME280;19224;52.462;16.898;2024-03-06T06:56:03;100950.45;;;5.87;100.00
32873;BME280;19224;52.462;16.898;2024-03-06T06:58:34;100957.35;;;6.01;100.00
32873;BME280;19224;52.462;16.898;2024-03-06T07:01:04;100956.73;;;6.12;100.00
32873;BME280;19224;52.462;16.898;2024-03-06T07:03:34;100955.59;;;6.27;100.00
32873;BME280;19224;52.462;16.898;2024-03-06T07:06:06;100957.30;;;6.31;100.00
32873;BME280;19224;52.462;16.898;2024-03-06T07:08:36;100958.55;;;6.37;100.00
32873;BME280;19224;52.462;16.898;2024-03-06T07:11:07;100959.13;;;6.27;100.00
32873;BME280;19224;52.462;16.898;2024-03-06T07:13:38;100960.09;;;6.25;100.00
32873;BME280;19224;52.462;16.898;2024-03-06T07:16:08;100968.75;;;6.39;100.00
32873;BME280;19224;52.462;16.898;2024-03-06T07:18:39;100966.49;;;6.41;100.00
32873;BME280;19224;52.462;16.898;2024-03-06T07:21:09;100970.45;;;6.44;100.00
32873;BME280;19224;52.462;16.898;2024-03-06T07:23:39;100978.88;;;6.47;100.00
32873;BME280;19224;52.462;16.898;2024-03-06T07:26:09;100973.41;;;6.53;100.00
32873;BME280;19224;52.462;16.898;2024-03-06T07:28:42;100976.34;;;6.63;100.00
32873;BME280;19224;52.462;16.898;2024-03-06T07:31:13;100974.86;;;6.70;100.00
32873;BME280;19224;52.462;16.898;2024-03-06T07:33:43;100967.73;;;6.71;100.00
32873;BME280;19224;52.462;16.898;2024-03-06T07:36:13;100972.53;;;6.76;100.00
32873;BME280;19224;52.462;16.898;2024-03-06T07:38:44;100955.55;;;6.77;100.00
32873;BME280;19224;52.462;16.898;2024-03-06T07:41:14;100957.52;;;6.69;100.00
32873;BME280;19224;52.462;16.898;2024-03-06T07:43:47;100964.98;;;6.74;100.00
32873;BME280;19224;52.462;16.898;2024-03-06T07:46:19;100960.56;;;6.71;100.00
32873;BME280;19224;52.462;16.898;2024-03-06T07:48:49;100968.84;;;6.83;100.00
32873;BME280;19224;52.462;16.898;2024-03-06T07:51:20;100969.37;;;6.99;100.00
32873;BME280;19224;52.462;16.898;2024-03-06T07:53:51;100980.77;;;7.10;100.00
32873;BME280;19224;52.462;16.898;2024-03-06T07:56:21;100981.56;;;7.15;100.00
32873;BME280;19224;52.462;16.898;2024-03-06T07:58:52;100995.30;;;7.41;100.00
32873;BME280;19224;52.462;16.898;2024-03-06T08:01:23;101003.66;;;7.48;100.00
32873;BME280;19224;52.462;16.898;2024-03-06T08:03:54;101016.44;;;7.56;100.00
32873;BME280;19224;52.462;16.898;2024-03-06T08:06:24;101004.70;;;7.62;100.00
32873;BME280;19224;52.462;16.898;2024-03-06T08:09:04;101000.27;;;7.61;100.00
32873;BME280;19224;52.462;16.898;2024-03-06T08:11:30;101011.92;;;7.77;100.00
32873;BME280;19224;52.462;16.898;2024-03-06T08:14:01;101006.32;;;7.89;100.00
32873;BME280;19224;52.462;16.898;2024-03-06T08:16:32;101007.30;;;8.04;100.00
32873;BME280;19224;52.462;16.898;2024-03-06T08:19:03;101017.29;;;7.98;100.00
32873;BME280;19224;52.462;16.898;2024-03-06T08:21:34;101018.89;;;8.05;100.00
32873;BME280;19224;52.462;16.898;2024-03-06T08:24:04;101018.64;;;8.17;100.00
32873;BME280;19224;52.462;16.898;2024-03-06T08:26:36;101018.91;;;8.25;100.00
32873;BME280;19224;52.462;16.898;2024-03-06T08:29:08;101017.88;;;8.31;100.00
32873;BME280;19224;52.462;16.898;2024-03-06T08:31:38;101021.67;;;8.22;100.00
32873;BME280;19224;52.462;16.898;2024-03-06T08:34:09;101010.66;;;8.33;100.00
32873;BME280;19224;52.462;16.898;2024-03-06T08:36:39;101015.50;;;8.36;100.00
32873;BME280;19224;52.462;16.898;2024-03-06T08:39:11;101009.55;;;8.41;100.00
32873;BME280;19224;52.462;16.898;2024-03-06T08:41:43;101009.23;;;8.36;100.00
32873;BME280;19224;52.462;16.898;2024-03-06T08:44:18;101023.48;;;8.20;100.00
32873;BME280;19224;52.462;16.898;2024-03-06T08:46:54;101033.29;;;8.21;100.00
32873;BME280;19224;52.462;16.898;2024-03-06T08:49:24;101028.19;;;8.30;100.00
32873;BME280;19224;52.462;16.898;2024-03-06T08:51:57;101030.69;;;8.37;100.00
32873;BME280;19224;52.462;16.898;2024-03-06T08:54:40;101040.50;;;8.38;100.00
32873;BME280;19224;52.462;16.898;2024-03-06T08:57:06;101027.61;;;8.52;100.00
32873;BME280;19224;52.462;16.898;2024-03-06T08:59:41;101031.28;;;8.50;100.00
32873;BME280;19224;52.462;16.898;2024-03-06T09:02:19;101028.50;;;8.35;100.00
32873;BME280;19224;52.462;16.898;2024-03-06T09:04:50;101032.53;;;8.35;100.00
32873;BME280;19224;52.462;16.898;2024-03-06T09:07:30;101032.05;;;8.53;100.00
32873;BME280;19224;52.462;16.898;2024-03-06T09:10:00;101030.05;;;8.45;100.00
32873;BME280;19224;52.462;16.898;2024-03-06T09:12:30;101031.95;;;8.58;100.00
32873;BME280;19224;52.462;16.898;2024-03-06T09:15:04;101034.22;;;8.57;100.00
32873;BME280;19224;52.462;16.898;2024-03-06T09:17:42;101032.84;;;8.58;100.00
32873;BME280;19224;52.462;16.898;2024-03-06T09:20:14;101038.94;;;8.65;100.00
32873;BME280;19224;52.462;16.898;2024-03-06T09:22:45;101034.52;;;8.62;100.00
32873;BME280;19224;52.462;16.898;2024-03-06T09:25:17;101031.39;;;8.63;100.00
32873;BME280;19224;52.462;16.898;2024-03-06T09:27:48;101029.97;;;8.48;100.00
32873;BME280;19224;52.462;16.898;2024-03-06T09:30:23;101028.03;;;8.53;100.00
32873;BME280;19224;52.462;16.898;2024-03-06T09:32:55;101021.99;;;8.45;100.00
32873;BME280;19224;52.462;16.898;2024-03-06T09:35:25;101032.14;;;8.50;100.00
32873;BME280;19224;52.462;16.898;2024-03-06T09:37:55;101038.05;;;8.64;100.00
32873;BME280;19224;52.462;16.898;2024-03-06T09:40:27;101029.46;;;8.50;100.00
32873;BME280;19224;52.462;16.898;2024-03-06T09:42:59;101031.33;;;8.47;100.00
32873;BME280;19224;52.462;16.898;2024-03-06T09:45:30;101037.59;;;8.47;100.00
32873;BME280;19224;52.462;16.898;2024-03-06T09:48:01;101038.56;;;8.43;100.00
32873;BME280;19224;52.462;16.898;2024-03-06T09:50:35;101040.70;;;8.48;100.00
32873;BME280;19224;52.462;16.898;2024-03-06T09:53:07;101045.98;;;8.51;100.00
32873;BME280;19224;52.462;16.898;2024-03-06T09:55:39;101045.67;;;8.46;100.00
32873;BME280;19224;52.462;16.898;2024-03-06T09:58:15;101049.26;;;8.46;100.00
32873;BME280;19224;52.462;16.898;2024-03-06T10:00:48;101045.84;;;8.40;100.00
32873;BME280;19224;52.462;16.898;2024-03-06T10:03:20;101051.94;;;8.46;100.00
32873;BME280;19224;52.462;16.898;2024-03-06T10:05:50;101052.89;;;8.61;100.00
32873;BME280;19224;52.462;16.898;2024-03-06T10:08:25;101062.73;;;8.61;100.00
32873;BME280;19224;52.462;16.898;2024-03-06T10:10:57;101062.62;;;8.65;100.00
32873;BME280;19224;52.462;16.898;2024-03-06T10:13:32;101054.44;;;8.71;100.00
32873;BME280;19224;52.462;16.898;2024-03-06T10:16:04;101055.05;;;8.65;100.00
32873;BME280;19224;52.462;16.898;2024-03-06T10:18:42;101061.37;;;8.62;100.00
32873;BME280;19224;52.462;16.898;2024-03-06T10:21:12;101051.77;;;8.70;100.00
32873;BME280;19224;52.462;16.898;2024-03-06T10:23:47;101051.24;;;8.73;100.00
32873;BME280;19224;52.462;16.898;2024-03-06T10:26:17;101053.42;;;8.75;100.00
32873;BME280;19224;52.462;16.898;2024-03-06T10:28:49;101052.19;;;8.71;100.00
32873;BME280;19224;52.462;16.898;2024-03-06T10:31:28;101049.06;;;8.71;100.00
32873;BME280;19224;52.462;16.898;2024-03-06T10:34:02;101055.91;;;8.65;100.00
32873;BME280;19224;52.462;16.898;2024-03-06T10:36:34;101049.57;;;8.69;100.00
32873;BME280;19224;52.462;16.898;2024-03-06T10:39:09;101048.14;;;8.72;100.00
32873;BME280;19224;52.462;16.898;2024-03-06T10:41:44;101055.05;;;8.65;100.00
32873;BME280;19224;52.462;16.898;2024-03-06T10:44:17;101051.47;;;8.64;100.00
32873;BME280;19224;52.462;16.898;2024-03-06T10:47:08;101059.10;;;8.63;100.00
32873;BME280;19224;52.462;16.898;2024-03-06T10:49:38;101061.58;;;8.36;100.00
32873;BME280;19224;52.462;16.898;2024-03-06T10:52:16;101059.28;;;8.38;100.00
32873;BME280;19224;52.462;16.898;2024-03-06T10:54:49;101058.45;;;8.36;100.00
32873;BME280;19224;52.462;16.898;2024-03-06T10:57:20;101057.05;;;8.38;100.00
32873;BME280;19224;52.462;16.898;2024-03-06T10:59:52;101053.52;;;8.36;100.00
32873;BME280;19224;52.462;16.898;2024-03-06T11:02:23;101051.15;;;8.41;100.00
32873;BME280;19224;52.462;16.898;2024-03-06T11:04:54;101058.97;;;8.33;100.00
32873;BME280;19224;52.462;16.898;2024-03-06T11:07:26;101055.97;;;8.27;100.00
32873;BME280;19224;52.462;16.898;2024-03-06T11:09:59;101058.45;;;8.36;100.00
32873;BME280;19224;52.462;16.898;2024-03-06T11:12:38;101057.63;;;8.33;100.00
32873;BME280;19224;52.462;16.898;2024-03-06T11:15:16;101053.08;;;8.36;100.00
32873;BME280;19224;52.462;16.898;2024-03-06T11:17:47;101053.84;;;8.41;100.00
32873;BME280;19224;52.462;16.898;2024-03-06T11:20:20;101051.10;;;8.44;100.00
32873;BME280;19224;52.462;16.898;2024-03-06T11:26:07;101049.26;;;8.46;100.00
32873;BME280;19224;52.462;16.898;2024-03-06T11:28:42;101058.88;;;8.55;100.00
32873;BME280;19224;52.462;16.898;2024-03-06T11:31:15;101057.19;;;8.33;100.00
32873;BME280;19224;52.462;16.898;2024-03-06T11:33:53;101053.39;;;8.42;100.00
32873;BME280;19224;52.462;16.898;2024-03-06T11:36:29;101051.02;;;8.47;100.00
32873;BME280;19224;52.462;16.898;2024-03-06T11:39:08;101054.35;;;8.57;100.00
32873;BME280;19224;52.462;16.898;2024-03-06T11:41:49;101047.24;;;8.54;100.00
32873;BME280;19224;52.462;16.898;2024-03-06T11:44:26;101052.17;;;8.55;100.00
32873;BME280;19224;52.462;16.898;2024-03-06T11:47:08;101053.53;;;8.53;100.00
32873;BME280;19224;52.462;16.898;2024-03-06T11:49:41;101051.66;;;8.57;100.00
32873;BME280;19224;52.462;16.898;2024-03-06T11:52:11;101051.36;;;8.51;100.00
32873;BME280;19224;52.462;16.898;2024-03-06T11:54:46;101058.15;;;8.48;100.00
32873;BME280;19224;52.462;16.898;2024-03-06T11:57:21;101050.61;;;8.27;100.00
32873;BME280;19224;52.462;16.898;2024-03-06T11:59:53;101047.71;;;8.36;100.00
32873;BME280;19224;52.462;16.898;2024-03-06T12:02:23;101055.17;;;8.41;100.00
32873;BME280;19224;52.462;16.898;2024-03-06T12:04:54;101049.45;;;8.39;100.00
32873;BME280;19224;52.462;16.898;2024-03-06T12:07:24;101052.08;;;8.40;100.00
32873;BME280;19224;52.462;16.898;2024-03-06T12:09:57;101053.73;;;8.46;100.00
32873;BME280;19224;52.462;16.898;2024-03-06T12:12:30;101055.44;;;8.50;100.00
32873;BME280;19224;52.462;16.898;2024-03-06T12:15:03;101060.72;;;8.53;100.00
32873;BME280;19224;52.462;16.898;2024-03-06T12:17:49;101057.31;;;8.46;100.00
32873;BME280;19224;52.462;16.898;2024-03-06T12:20:21;101055.44;;;8.50;100.00
32873;BME280;19224;52.462;16.898;2024-03-06T12:23:02;101057.36;;;8.43;100.00
32873;BME280;19224;52.462;16.898;2024-03-06T12:25:28;101053.73;;;8.46;100.00
32873;BME280;19224;52.462;16.898;2024-03-06T12:28:06;101055.72;;;8.55;100.00
32873;BME280;19224;52.462;16.898;2024-03-06T12:30:44;101060.67;;;8.54;100.00
32873;BME280;19224;52.462;16.898;2024-03-06T12:33:17;101055.46;;;8.48;100.00
32873;BME280;19224;52.462;16.898;2024-03-06T12:36:00;101057.56;;;8.53;100.00
32873;BME280;19224;52.462;16.898;2024-03-06T12:38:20;101054.13;;;8.48;100.00
32873;BME280;19224;52.462;16.898;2024-03-06T12:40:51;101048.16;;;8.53;100.00
32873;BME280;19224;52.462;16.898;2024-03-06T12:43:21;101049.98;;;8.70;100.00
32873;BME280;19224;52.462;16.898;2024-03-06T12:45:53;101052.67;;;8.70;100.00
32873;BME280;19224;52.462;16.898;2024-03-06T12:48:25;101048.95;;;8.58;100.00
32873;BME280;19224;52.462;16.898;2024-03-06T12:51:00;101048.34;;;8.47;100.00
32873;BME280;19224;52.462;16.898;2024-03-06T12:53:34;101048.03;;;8.59;100.00
32873;BME280;19224;52.462;16.898;2024-03-06T12:56:07;101048.36;;;8.63;100.00
32873;BME280;19224;52.462;16.898;2024-03-06T12:58:42;101048.56;;;8.56;100.00
32873;BME280;19224;52.462;16.898;2024-03-06T13:01:20;101043.05;;;8.62;100.00
32873;BME280;19224;52.462;16.898;2024-03-06T13:03:50;101038.97;;;8.63;100.00
32873;BME280;19224;52.462;16.898;2024-03-06T13:06:20;101042.80;;;8.71;100.00